createdAt,value
2022-08-09T00:00:28.253Z,11.20
2022-08-09T00:06:18.878Z,9.30
2022-08-09T00:11:24.504Z,10.70
2022-08-09T00:16:36.754Z,9.60
2022-08-09T00:21:55.441Z,12.00
2022-08-09T00:27:02.591Z,16.20
2022-08-09T00:32:07.198Z,13.80
2022-08-09T00:37:11.311Z,12.00
2022-08-09T00:44:16.261Z,9.40
2022-08-09T00:47:39.932Z,8.10
2022-08-09T00:52:45.128Z,8.60
2022-08-09T00:57:49.894Z,8.60
2022-08-09T01:03:46.317Z,9.10
2022-08-09T01:09:11.009Z,11.70
2022-08-09T01:14:29.233Z,7.50
2022-08-09T01:20:10.387Z,6.40
2022-08-09T01:25:50.969Z,7.80
2022-08-09T01:30:59.951Z,9.10
2022-08-09T01:36:20.959Z,9.70
2022-08-09T01:41:30.850Z,8.30
2022-08-09T01:46:47.872Z,7.90
2022-08-09T01:52:07.406Z,9.00
2022-08-09T01:57:18.625Z,10.80
2022-08-09T02:02:32.691Z,10.60
2022-08-09T02:08:40.414Z,10.20
2022-08-09T02:13:14.994Z,9.80
2022-08-09T02:23:43.163Z,11.30
2022-08-09T02:29:06.955Z,8.90
2022-08-09T02:34:41.354Z,11.10
2022-08-09T02:40:10.666Z,8.00
2022-08-09T02:45:28.716Z,9.70
2022-08-09T02:50:45.788Z,9.40
2022-08-09T02:55:58.622Z,10.80
2022-08-09T03:01:06.390Z,9.80
2022-08-09T03:06:15.357Z,8.70
2022-08-09T03:12:05.238Z,8.90
2022-08-09T03:16:48.733Z,8.90
2022-08-09T03:21:54.261Z,7.80
2022-08-09T03:26:59.768Z,8.40
2022-08-09T03:32:08.571Z,10.10
2022-08-09T03:37:56.662Z,8.80
2022-08-09T03:42:37.681Z,8.60
2022-08-09T03:47:46.529Z,9.90
2022-08-09T03:58:06.369Z,10.30
2022-08-09T04:03:35.303Z,9.40
2022-08-09T04:08:53.551Z,11.40
2022-08-09T04:14:44.070Z,9.60
2022-08-09T04:19:30.021Z,9.60
2022-08-09T04:24:46.316Z,9.10
2022-08-09T04:29:50.774Z,8.50
2022-08-09T04:34:58.670Z,9.70
2022-08-09T04:40:08.361Z,9.30
2022-08-09T04:45:15.033Z,8.60
2022-08-09T04:50:19.722Z,9.90
2022-08-09T04:55:24.022Z,9.70
2022-08-09T05:00:31.934Z,9.30
2022-08-09T05:05:51.789Z,8.90
2022-08-09T05:10:56.956Z,8.70
2022-08-09T05:16:05.465Z,8.30
2022-08-09T05:21:09.690Z,8.50
2022-08-09T05:26:22.300Z,7.90
2022-08-09T05:36:51.368Z,8.20
2022-08-09T05:42:01.574Z,9.60
2022-08-09T05:47:08.889Z,9.30
2022-08-09T05:52:13.366Z,8.30
2022-08-09T05:57:19.175Z,7.90
2022-08-09T06:02:23.438Z,9.10
2022-08-09T06:07:28.875Z,8.70
2022-08-09T06:12:33.613Z,8.50
2022-08-09T06:17:39.837Z,7.00
2022-08-09T06:22:45.724Z,9.10
2022-08-09T06:27:51.853Z,9.30
2022-08-09T06:33:13.693Z,7.90
2022-08-09T06:38:20.584Z,8.00
2022-08-09T06:43:36.988Z,9.60
2022-08-09T06:48:45.014Z,9.20
2022-08-09T06:53:50.023Z,7.80
2022-08-09T07:00:50.913Z,9.00
2022-08-09T07:04:21.069Z,10.10
2022-08-09T07:09:53.482Z,10.10
2022-08-09T07:14:54.618Z,8.30
2022-08-09T07:19:58.764Z,9.80
2022-08-09T07:25:09.502Z,9.40
2022-08-09T07:30:15.739Z,8.40
2022-08-09T07:35:23.138Z,9.00
2022-08-09T07:40:46.284Z,10.10
2022-08-09T07:45:54.854Z,8.70
2022-08-09T07:52:03.414Z,7.40
2022-08-09T07:56:31.709Z,8.70
2022-08-09T08:01:36.553Z,7.70
2022-08-09T08:06:45.471Z,7.80
2022-08-09T08:12:24.772Z,7.40
2022-08-09T08:17:52.155Z,7.60
2022-08-09T08:22:49.957Z,7.00
2022-08-09T08:28:00.433Z,7.20
2022-08-09T08:33:05.044Z,7.10
2022-08-09T08:38:11.798Z,6.00
2022-08-09T08:43:16.533Z,7.50
2022-08-09T08:48:23.738Z,6.30
2022-08-09T08:53:37.242Z,6.60
2022-08-09T08:58:46.454Z,5.40
2022-08-09T09:03:52.581Z,4.70
2022-08-09T09:09:02.391Z,5.00
2022-08-09T09:14:27.991Z,4.50
2022-08-09T09:19:41.088Z,4.60
2022-08-09T09:24:55.553Z,4.20
2022-08-09T09:30:39.739Z,4.50
2022-08-09T09:36:02.242Z,4.40
2022-08-09T09:41:09.912Z,4.60
2022-08-09T09:51:42.576Z,4.50
2022-08-09T09:58:00.801Z,4.70
2022-08-09T10:02:19.796Z,4.40
2022-08-09T10:07:30.235Z,4.70
2022-08-09T10:12:43.771Z,4.10
2022-08-09T10:18:10.597Z,3.80
2022-08-09T10:23:20.225Z,5.00
2022-08-09T10:28:32.884Z,4.30
2022-08-09T10:34:08.451Z,4.00
2022-08-09T10:39:13.948Z,4.80
2022-08-09T10:44:24.739Z,4.80
2022-08-09T10:50:15.078Z,5.20
2022-08-09T10:55:49.186Z,4.20
2022-08-09T11:03:02.060Z,4.20
2022-08-09T11:06:24.719Z,4.30
2022-08-09T11:11:58.710Z,3.80
2022-08-09T11:17:25.056Z,4.20
2022-08-09T11:22:41.652Z,4.20
2022-08-09T11:28:05.017Z,3.60
2022-08-09T11:33:20.350Z,3.60
2022-08-09T11:38:35.013Z,3.90
2022-08-09T11:43:52.644Z,4.20
2022-08-09T11:48:59.312Z,4.20
2022-08-09T11:54:27.555Z,3.90
2022-08-09T11:59:34.550Z,4.00
2022-08-09T12:09:50.686Z,3.50
2022-08-09T12:15:03.858Z,4.00
2022-08-09T12:20:24.136Z,4.20
2022-08-09T12:25:37.098Z,3.80
2022-08-09T12:30:45.793Z,3.40
2022-08-09T12:36:27.710Z,3.50
2022-08-09T12:41:39.713Z,3.10
2022-08-09T12:46:49.834Z,3.30
2022-08-09T12:52:00.558Z,3.00
2022-08-09T12:57:08.107Z,2.80
2022-08-09T13:02:15.232Z,2.90
2022-08-09T13:07:50.188Z,2.90
2022-08-09T13:13:09.998Z,3.10
2022-08-09T13:18:17.552Z,2.70
2022-08-09T13:24:16.965Z,2.90
2022-08-09T13:29:42.352Z,3.30
2022-08-09T13:34:46.614Z,3.10
2022-08-09T13:41:54.739Z,2.70
2022-08-09T13:45:17.517Z,2.70
2022-08-09T13:50:30.446Z,2.90
2022-08-09T13:55:36.922Z,2.90
2022-08-09T14:00:48.287Z,2.50
2022-08-09T14:06:02.671Z,2.70
2022-08-09T14:11:16.007Z,2.50
2022-08-09T14:16:28.193Z,2.70
2022-08-09T14:21:33.638Z,2.50
2022-08-09T14:26:38.121Z,2.60
2022-08-09T14:31:51.930Z,2.90
2022-08-09T14:36:58.103Z,2.30
2022-08-09T14:42:03.378Z,2.40
2022-08-09T14:47:29.089Z,2.40
2022-08-09T14:52:33.361Z,2.60
2022-08-09T14:57:43.630Z,2.40
2022-08-09T15:02:51.838Z,1.70
2022-08-09T15:07:58.163Z,2.40
2022-08-09T15:13:05.782Z,2.90
2022-08-09T15:18:14.552Z,2.30
2022-08-09T15:24:01.703Z,2.80
2022-08-09T15:28:42.698Z,1.90
2022-08-09T15:34:17.266Z,2.60
2022-08-09T15:39:24.313Z,2.40
2022-08-09T15:44:39.852Z,2.00
2022-08-09T15:49:46.299Z,2.40
2022-08-09T15:55:12.730Z,2.20
2022-08-09T16:00:25.791Z,2.20
2022-08-09T16:05:36.329Z,2.10
2022-08-09T16:10:56.919Z,2.70
2022-08-09T16:16:12.000Z,2.30
2022-08-09T16:21:25.865Z,2.70
2022-08-09T16:26:35.273Z,2.60
2022-08-09T16:32:18.559Z,2.50
2022-08-09T16:37:11.832Z,2.20
2022-08-09T16:42:16.066Z,3.50
2022-08-09T16:48:49.554Z,2.90
2022-08-09T16:52:53.279Z,3.10
2022-08-09T16:58:09.906Z,3.40
2022-08-09T17:03:22.233Z,2.80
2022-08-09T17:08:43.400Z,2.60
2022-08-09T17:14:01.792Z,2.90
2022-08-09T17:19:06.275Z,3.50
2022-08-09T17:24:28.146Z,2.80
2022-08-09T17:29:38.026Z,2.80
2022-08-09T17:35:00.974Z,2.40
2022-08-09T17:40:18.166Z,2.50
2022-08-09T17:45:27.297Z,2.90
2022-08-09T17:50:41.917Z,2.60
2022-08-09T17:56:04.716Z,2.60
2022-08-09T18:01:22.286Z,3.10
2022-08-09T18:06:32.046Z,2.80
2022-08-09T18:11:46.819Z,2.60
2022-08-09T18:17:03.991Z,3.00
2022-08-09T18:22:13.387Z,3.30
2022-08-09T18:28:02.165Z,3.30
2022-08-09T18:32:45.664Z,3.00
2022-08-09T18:37:58.982Z,3.50
2022-08-09T18:43:03.860Z,3.30
2022-08-09T18:48:08.645Z,3.70
2022-08-09T18:53:16.286Z,4.40
2022-08-09T18:58:32.046Z,5.30
2022-08-09T19:03:54.521Z,3.90
2022-08-09T19:09:07.684Z,3.60
2022-08-09T19:14:24.299Z,4.20
2022-08-09T19:19:41.639Z,4.00
2022-08-09T19:25:09.925Z,5.80
2022-08-09T19:30:22.115Z,5.90
2022-08-09T19:35:57.237Z,7.90
2022-08-09T19:40:59.952Z,11.50
2022-08-09T19:46:05.701Z,14.30
2022-08-09T19:51:10.128Z,14.00
2022-08-09T19:56:15.562Z,16.80
2022-08-09T20:01:20.196Z,12.70
2022-08-09T20:06:31.348Z,20.50
2022-08-09T20:11:48.838Z,18.40
2022-08-09T20:16:56.927Z,12.80
2022-08-09T20:22:01.508Z,7.90
2022-08-09T20:27:11.596Z,7.10
2022-08-09T20:32:30.588Z,9.90
2022-08-09T20:38:22.267Z,7.90
2022-08-09T20:43:18.404Z,14.20
2022-08-09T20:48:30.695Z,20.00
2022-08-09T20:53:39.093Z,8.50
2022-08-09T20:58:43.669Z,12.80
2022-08-09T21:04:08.414Z,15.70
2022-08-09T21:09:24.784Z,13.50
2022-08-09T21:14:40.373Z,11.90
2022-08-09T21:20:18.395Z,11.10
2022-08-09T21:25:37.610Z,13.30
2022-08-09T21:30:42.985Z,14.20
2022-08-09T21:35:51.073Z,12.10
2022-08-09T21:40:56.970Z,13.70
2022-08-09T21:46:01.414Z,14.90
2022-08-09T21:51:13.992Z,14.80
2022-08-09T21:56:34.023Z,14.10
2022-08-09T22:02:00.263Z,12.20
2022-08-09T22:07:06.569Z,13.20
2022-08-09T22:12:18.520Z,14.80
2022-08-09T22:17:33.158Z,10.90
2022-08-09T22:22:39.343Z,10.40
2022-08-09T22:27:43.723Z,10.10
2022-08-09T22:32:48.018Z,10.50
2022-08-09T22:38:03.344Z,9.10
2022-08-09T22:43:16.849Z,9.80
2022-08-09T22:48:37.021Z,10.60
2022-08-09T22:53:58.670Z,9.30
2022-08-09T22:59:57.671Z,10.30
2022-08-09T23:04:32.558Z,9.80
2022-08-09T23:09:40.986Z,9.60
2022-08-09T23:14:45.121Z,12.10
2022-08-09T23:20:07.504Z,11.00
2022-08-09T23:25:12.652Z,12.40
2022-08-09T23:30:17.971Z,11.60
2022-08-09T23:35:22.139Z,10.60
2022-08-09T23:40:26.473Z,10.90
2022-08-09T23:45:36.863Z,11.50
2022-08-09T23:50:42.782Z,11.80
2022-08-09T23:55:49.734Z,11.40
